Ashwaubenon, Wisconsin
Current Conditions -  °F | °C
As of 6:53 AM on Monday 22 Dec 2014 (Local Time) from KGRB Reporting Station
Haze Haze  
Wind Chill: -3°   Ceiling: 1400
Heat Index:   Visibility: 4mi
Dew Point:   Wind: 13mph
Humidity: 89%   Direction: 160°SSE
Pressure: 29.92"   Gusts: NA
Location:  44.48°N, 88.07°W
Report Text: KGRB 221253Z 16011KT 4SM BR OVC014 02/00 A2992 RMK AO2 SLP141 T00170000
Loading
Personal Weather Stations






























Interactive Weather Map New forecast layout! Learn more

10-Day Weather Forecast

Advertisements
Track Severe Weather on mobile